createdAt,value
2022-11-16T00:01:24.694Z,100091.77
2022-11-16T00:03:53.936Z,100087.52
2022-11-16T00:06:23.798Z,100090.93
2022-11-16T00:09:19.600Z,100089.52
2022-11-16T00:11:58.089Z,100089.82
2022-11-16T00:14:31.691Z,100092.92
2022-11-16T00:17:01.392Z,100097.67
2022-11-16T00:19:30.144Z,100100.98
2022-11-16T00:21:58.502Z,100098.10
2022-11-16T00:24:26.847Z,100095.38
2022-11-16T00:26:56.144Z,100092.27
2022-11-16T00:29:26.410Z,100095.23
2022-11-16T00:31:55.524Z,100090.90
2022-11-16T00:34:24.466Z,100093.45
2022-11-16T00:36:53.145Z,100095.04
2022-11-16T00:39:21.418Z,100094.06
2022-11-16T00:41:50.400Z,100095.39
2022-11-16T00:44:19.093Z,100095.77
2022-11-16T00:46:47.279Z,100091.85
2022-11-16T00:49:15.404Z,100100.33
2022-11-16T00:51:43.873Z,100096.33
2022-11-16T00:54:12.677Z,100101.64
2022-11-16T00:56:41.327Z,100099.38
2022-11-16T00:59:09.493Z,100093.72
2022-11-16T01:01:37.837Z,100091.77
2022-11-16T01:04:07.662Z,100092.64
2022-11-16T01:06:37.461Z,100093.84
2022-11-16T01:09:05.630Z,100089.45
2022-11-16T01:11:52.381Z,100091.77
2022-11-16T01:14:20.536Z,100093.14
2022-11-16T01:16:51.742Z,100091.77
2022-11-16T01:19:21.839Z,100084.69
2022-11-16T01:21:50.123Z,100081.49
2022-11-16T01:24:18.299Z,100081.25
2022-11-16T01:26:46.550Z,100075.59
2022-11-16T01:29:16.444Z,100076.40
2022-11-16T01:31:49.997Z,100075.36
2022-11-16T01:34:18.262Z,100073.69
2022-11-16T01:36:47.198Z,100072.89
2022-11-16T01:39:16.892Z,100073.80
2022-11-16T01:41:50.111Z,100074.42
2022-11-16T01:44:34.062Z,100074.27
2022-11-16T01:47:16.255Z,100074.88
2022-11-16T01:49:54.931Z,100070.66
2022-11-16T01:52:35.697Z,100070.83
2022-11-16T01:55:04.890Z,100068.80
2022-11-16T01:57:47.248Z,100069.48
2022-11-16T02:00:16.964Z,100067.55
2022-11-16T02:02:52.219Z,100065.98
2022-11-16T02:06:17.120Z,100059.66
2022-11-16T02:09:32.740Z,100059.75
2022-11-16T02:12:22.079Z,100060.81
2022-11-16T02:15:24.268Z,100056.86
2022-11-16T02:18:28.712Z,100053.08
2022-11-16T02:21:34.938Z,100053.13
2022-11-16T02:24:24.408Z,100051.80
2022-11-16T02:27:18.265Z,100057.50
2022-11-16T02:29:53.245Z,100052.63
2022-11-16T02:32:53.737Z,100051.16
2022-11-16T02:35:31.169Z,100050.45
2022-11-16T02:38:17.286Z,100053.91
2022-11-16T02:40:52.838Z,100047.00
2022-11-16T02:43:38.741Z,100046.63
2022-11-16T02:46:14.043Z,100045.14
2022-11-16T02:48:54.275Z,100042.23
2022-11-16T02:51:24.700Z,100040.62
2022-11-16T02:54:13.077Z,100040.77
2022-11-16T02:57:02.431Z,100044.65
2022-11-16T02:59:44.224Z,100047.25
2022-11-16T03:02:39.990Z,100047.39
2022-11-16T03:05:32.050Z,100047.98
2022-11-16T03:08:18.169Z,100047.13
2022-11-16T03:11:11.666Z,100043.69
2022-11-16T03:13:41.606Z,100043.77
2022-11-16T03:16:27.549Z,100044.66
2022-11-16T03:19:00.341Z,100040.70
2022-11-16T03:22:06.891Z,100040.63
2022-11-16T03:24:36.758Z,100038.11
2022-11-16T03:27:39.156Z,100040.83
2022-11-16T03:30:15.136Z,100041.65
2022-11-16T03:32:56.293Z,100036.52
2022-11-16T03:35:41.292Z,100033.02
2022-11-16T03:38:12.269Z,100030.36
2022-11-16T03:40:45.838Z,100029.21
2022-11-16T03:43:17.084Z,100024.17
2022-11-16T03:45:46.974Z,100020.77
2022-11-16T03:48:15.000Z,100019.94
2022-11-16T03:50:44.001Z,100015.60
2022-11-16T03:53:12.074Z,100013.98
2022-11-16T03:55:40.222Z,100006.77
2022-11-16T03:58:08.524Z,100007.91
2022-11-16T04:00:36.817Z,100004.10
2022-11-16T04:03:09.772Z,100002.98
2022-11-16T04:05:56.410Z,99998.82
2022-11-16T04:08:45.111Z,100004.33
2022-11-16T04:11:35.475Z,100002.86
2022-11-16T04:14:23.233Z,100003.69
2022-11-16T04:17:09.865Z,100000.03
2022-11-16T04:19:58.568Z,99999.96
2022-11-16T04:22:58.685Z,99997.23
2022-11-16T04:25:31.982Z,99993.86
2022-11-16T04:28:16.421Z,99990.55
2022-11-16T04:31:18.204Z,99985.71
2022-11-16T04:34:11.802Z,99983.31
2022-11-16T04:37:01.820Z,99978.96
2022-11-16T04:39:30.996Z,99977.61
2022-11-16T04:42:14.136Z,99977.20
2022-11-16T04:45:01.118Z,99975.56
2022-11-16T04:47:33.422Z,99973.25
2022-11-16T04:50:01.221Z,99971.80
2022-11-16T04:52:29.719Z,99968.38
2022-11-16T04:54:57.812Z,99971.02
2022-11-16T04:57:25.738Z,99965.08
2022-11-16T04:59:53.542Z,99960.71
2022-11-16T05:02:21.340Z,99957.06
2022-11-16T05:04:57.697Z,99953.14
2022-11-16T05:07:26.270Z,99951.64
2022-11-16T05:10:00.955Z,99952.58
2022-11-16T05:12:29.894Z,99942.71
2022-11-16T05:15:00.381Z,99938.98
2022-11-16T05:17:30.035Z,99934.30
2022-11-16T05:20:17.976Z,99933.38
2022-11-16T05:22:57.824Z,99930.88
2022-11-16T05:25:33.787Z,99929.67
2022-11-16T05:28:05.398Z,99928.46
2022-11-16T05:30:36.541Z,99932.54
2022-11-16T05:33:04.499Z,99934.70
2022-11-16T05:35:34.570Z,99939.79
2022-11-16T05:38:02.540Z,99936.62
2022-11-16T05:40:32.941Z,99938.89
2022-11-16T05:43:01.784Z,99942.42
2022-11-16T05:45:31.696Z,99945.14
2022-11-16T05:48:00.219Z,99949.38
2022-11-16T05:50:28.074Z,99948.58
2022-11-16T05:53:07.370Z,99950.14
2022-11-16T05:55:36.016Z,99948.98
2022-11-16T05:58:03.849Z,99951.59
2022-11-16T06:00:31.889Z,99942.55
2022-11-16T06:02:59.935Z,99948.86
2022-11-16T06:05:30.804Z,99948.60
2022-11-16T06:07:59.540Z,99949.36
2022-11-16T06:10:27.355Z,99950.70
2022-11-16T06:12:55.431Z,99951.73
2022-11-16T06:15:23.964Z,99956.80
2022-11-16T06:17:51.738Z,99950.69
2022-11-16T06:20:21.186Z,99951.54
2022-11-16T06:22:49.004Z,99952.29
2022-11-16T06:25:18.264Z,99953.00
2022-11-16T06:27:46.072Z,99952.87
2022-11-16T06:30:16.755Z,99948.90
2022-11-16T06:32:45.794Z,99947.66
2022-11-16T06:35:13.610Z,99945.71
2022-11-16T06:37:41.464Z,99943.42
2022-11-16T06:40:12.944Z,99947.29
2022-11-16T06:42:43.379Z,99947.80
2022-11-16T06:45:14.898Z,99947.39
2022-11-16T06:47:46.822Z,99951.45
2022-11-16T06:50:19.119Z,99952.70
2022-11-16T06:52:49.734Z,99947.52
2022-11-16T06:55:18.182Z,99945.51
2022-11-16T06:57:46.452Z,99947.86
2022-11-16T07:00:17.737Z,99946.96
2022-11-16T07:02:46.366Z,99949.41
2022-11-16T07:05:16.325Z,99949.20
2022-11-16T07:07:44.191Z,99950.56
2022-11-16T07:10:13.445Z,99952.33
2022-11-16T07:12:42.823Z,99950.25
2022-11-16T07:15:11.498Z,99948.02
2022-11-16T07:17:42.852Z,99949.42
2022-11-16T07:20:12.026Z,99943.90
2022-11-16T07:22:40.720Z,99947.32
2022-11-16T07:25:11.957Z,99948.15
2022-11-16T07:27:39.820Z,99950.54
2022-11-16T07:30:08.763Z,99949.81
2022-11-16T07:32:45.609Z,99949.88
2022-11-16T07:35:33.775Z,99954.30
2022-11-16T07:38:03.190Z,99955.52
2022-11-16T07:40:31.851Z,99950.77
2022-11-16T07:42:59.828Z,99958.30
2022-11-16T07:45:34.453Z,99956.61
2022-11-16T07:48:07.156Z,99955.11
2022-11-16T07:50:54.137Z,99957.48
2022-11-16T07:53:24.302Z,99959.14
2022-11-16T07:55:54.400Z,99950.60
2022-11-16T07:58:23.461Z,99955.02
2022-11-16T08:00:51.590Z,99953.99
2022-11-16T08:03:24.452Z,99955.90
2022-11-16T08:06:21.125Z,99958.34
2022-11-16T08:08:52.427Z,99955.46
2022-11-16T08:11:25.453Z,99954.32
2022-11-16T08:13:55.774Z,99952.85
2022-11-16T08:16:24.123Z,99954.59
2022-11-16T08:18:56.975Z,99950.27
2022-11-16T08:21:25.000Z,99952.73
2022-11-16T08:23:58.127Z,99955.39
2022-11-16T08:26:27.492Z,99961.41
2022-11-16T08:29:00.114Z,99957.55
2022-11-16T08:31:31.205Z,99956.04
2022-11-16T08:34:12.557Z,99959.52
2022-11-16T08:36:43.553Z,99959.79
2022-11-16T08:39:11.546Z,99955.83
2022-11-16T08:41:42.174Z,99959.38
2022-11-16T08:44:11.640Z,99954.19
2022-11-16T08:46:41.703Z,99948.98
2022-11-16T08:49:17.541Z,99947.35
2022-11-16T08:51:45.489Z,99947.50
2022-11-16T08:54:13.425Z,99955.09
2022-11-16T08:56:42.039Z,99953.35
2022-11-16T08:59:10.281Z,99957.83
2022-11-16T09:01:41.203Z,99961.41
2022-11-16T09:04:09.635Z,99960.15
2022-11-16T09:06:37.931Z,99966.50
2022-11-16T09:09:05.952Z,99967.91
2022-11-16T09:11:34.086Z,99966.77
2022-11-16T09:14:02.271Z,99964.52
2022-11-16T09:16:30.289Z,99963.12
2022-11-16T09:18:58.245Z,99964.67
2022-11-16T09:21:30.921Z,99968.29
2022-11-16T09:23:59.378Z,99969.23
2022-11-16T09:26:27.488Z,99968.95
2022-11-16T09:28:58.825Z,99966.93
2022-11-16T09:31:28.797Z,99963.20
2022-11-16T09:33:59.075Z,99957.05
2022-11-16T09:36:28.835Z,99955.73
2022-11-16T09:42:16.724Z,99951.70
2022-11-16T09:45:09.119Z,99947.55
2022-11-16T09:47:57.646Z,99949.66
2022-11-16T09:50:46.562Z,99943.09
2022-11-16T09:53:26.205Z,99928.39
2022-11-16T09:56:28.702Z,99944.05
2022-11-16T09:59:31.828Z,99929.11
2022-11-16T10:02:24.428Z,99944.19
2022-11-16T10:05:10.722Z,99941.81
2022-11-16T10:07:58.495Z,99941.18
2022-11-16T10:10:37.675Z,99936.52
2022-11-16T10:13:35.539Z,99936.42
2022-11-16T10:16:31.132Z,99935.97
2022-11-16T10:19:18.313Z,99931.95
2022-11-16T10:22:13.335Z,99933.13
2022-11-16T10:25:08.873Z,99931.23
2022-11-16T10:28:17.742Z,99929.63
2022-11-16T10:31:09.493Z,99931.84
2022-11-16T10:33:39.500Z,99928.02
2022-11-16T10:36:16.122Z,99925.77
2022-11-16T10:38:44.269Z,99925.25
2022-11-16T10:41:23.713Z,99925.19
2022-11-16T10:43:51.834Z,99926.04
2022-11-16T10:46:42.164Z,99925.64
2022-11-16T10:49:36.910Z,99921.15
2022-11-16T10:52:04.935Z,99921.86
2022-11-16T10:54:32.911Z,99922.66
2022-11-16T10:57:14.040Z,99918.30
2022-11-16T10:59:55.549Z,99921.26
2022-11-16T11:02:35.140Z,99916.88
2022-11-16T11:05:22.014Z,99917.61
2022-11-16T11:08:00.044Z,99913.88
2022-11-16T11:10:54.136Z,99908.70
2022-11-16T11:13:26.727Z,99911.41
2022-11-16T11:16:16.699Z,99909.68
2022-11-16T11:18:44.882Z,99916.14
2022-11-16T11:21:19.329Z,99917.13
2022-11-16T11:23:52.411Z,99917.97
2022-11-16T11:26:40.887Z,99912.93
2022-11-16T11:29:31.565Z,99912.52
2022-11-16T11:32:23.883Z,99914.33
2022-11-16T11:34:56.094Z,99914.70
2022-11-16T11:37:35.102Z,99913.75
2022-11-16T11:40:26.682Z,99918.16
2022-11-16T11:43:01.633Z,99914.58
2022-11-16T11:45:44.795Z,99910.70
2022-11-16T11:48:43.030Z,99908.38
2022-11-16T11:51:35.719Z,99902.83
2022-11-16T11:54:05.100Z,99905.58
2022-11-16T11:56:34.131Z,99907.68
2022-11-16T11:59:04.779Z,99909.39
2022-11-16T12:02:07.222Z,99908.75
2022-11-16T12:05:16.157Z,99908.06
2022-11-16T12:08:23.158Z,99902.27
2022-11-16T12:11:17.904Z,99899.77
2022-11-16T12:14:00.843Z,99899.80
2022-11-16T12:16:58.057Z,99898.61
2022-11-16T12:20:15.214Z,99890.98
2022-11-16T12:23:38.901Z,99886.50
2022-11-16T12:26:16.879Z,99887.14
2022-11-16T12:29:05.933Z,99883.02
2022-11-16T12:32:01.797Z,99880.84
2022-11-16T12:35:06.810Z,99879.32
2022-11-16T12:38:10.093Z,99876.29
2022-11-16T12:40:59.542Z,99878.25
2022-11-16T12:43:53.458Z,99875.09
2022-11-16T12:47:18.043Z,99874.27
2022-11-16T12:50:08.616Z,99874.09
2022-11-16T12:53:05.486Z,99877.41
2022-11-16T12:56:05.855Z,99875.37
2022-11-16T12:59:01.872Z,99871.98
2022-11-16T13:02:07.097Z,99872.01
2022-11-16T13:04:47.270Z,99866.26
2022-11-16T13:07:31.845Z,99864.66
2022-11-16T13:10:13.736Z,99865.94
2022-11-16T13:12:45.565Z,99861.35
2022-11-16T13:15:20.764Z,99859.75
2022-11-16T13:18:15.613Z,99864.94
2022-11-16T13:21:17.818Z,99863.26
2022-11-16T13:24:02.721Z,99856.91
2022-11-16T13:26:45.009Z,99860.66
2022-11-16T13:29:36.952Z,99861.48
2022-11-16T13:32:21.386Z,99859.65
2022-11-16T13:34:52.094Z,99862.19
2022-11-16T13:37:38.620Z,99861.50
2022-11-16T13:40:06.859Z,99862.70
2022-11-16T13:42:45.455Z,99855.56
2022-11-16T13:45:21.981Z,99856.63
2022-11-16T13:47:56.768Z,99851.38
2022-11-16T13:50:38.957Z,99851.66
2022-11-16T13:56:50.151Z,99855.19
2022-11-16T13:59:25.358Z,99853.59
2022-11-16T14:02:04.594Z,99856.71
2022-11-16T14:04:54.678Z,99850.80
2022-11-16T14:07:49.687Z,99848.77
2022-11-16T14:10:33.241Z,99852.90
2022-11-16T14:13:06.136Z,99853.77
2022-11-16T14:15:36.388Z,99854.77
2022-11-16T14:18:07.039Z,99855.01
2022-11-16T14:20:37.839Z,99855.98
2022-11-16T14:23:30.552Z,99855.14
2022-11-16T14:26:19.582Z,99854.33
2022-11-16T14:29:06.599Z,99862.77
2022-11-16T14:31:50.950Z,99859.61
2022-11-16T14:34:41.595Z,99856.54
2022-11-16T14:37:21.963Z,99857.58
2022-11-16T14:39:53.754Z,99854.41
2022-11-16T14:42:38.177Z,99858.24
2022-11-16T14:45:29.397Z,99858.08
2022-11-16T14:48:13.291Z,99861.02
2022-11-16T14:50:46.231Z,99857.70
2022-11-16T14:53:19.631Z,99861.55
2022-11-16T14:55:47.520Z,99861.58
2022-11-16T14:58:22.624Z,99861.99
2022-11-16T15:00:59.535Z,99863.69
2022-11-16T15:03:34.458Z,99858.39
2022-11-16T15:06:06.181Z,99858.41
2022-11-16T15:08:51.736Z,99860.89
2022-11-16T15:11:54.752Z,99861.20
2022-11-16T15:14:31.552Z,99856.84
2022-11-16T15:17:00.270Z,99852.02
2022-11-16T15:19:32.046Z,99857.48
2022-11-16T15:22:04.146Z,99855.17
2022-11-16T15:24:35.082Z,99855.69
2022-11-16T15:27:38.049Z,99854.84
2022-11-16T15:30:45.918Z,99852.98
2022-11-16T15:33:24.341Z,99859.04
2022-11-16T15:35:53.997Z,99858.73
2022-11-16T15:38:26.274Z,99852.66
2022-11-16T15:41:05.511Z,99854.14
2022-11-16T15:44:01.256Z,99858.66
2022-11-16T15:46:33.984Z,99855.20
2022-11-16T15:49:02.778Z,99855.59
2022-11-16T15:51:31.137Z,99861.02
2022-11-16T15:54:23.805Z,99854.75
2022-11-16T15:56:55.673Z,99858.10
2022-11-16T15:59:33.955Z,99862.75
2022-11-16T16:02:03.228Z,99862.02
2022-11-16T16:04:31.343Z,99862.66
2022-11-16T16:07:00.936Z,99861.30
2022-11-16T16:09:39.269Z,99863.92
2022-11-16T16:12:26.399Z,99862.48
2022-11-16T16:15:21.052Z,99858.15
2022-11-16T16:17:50.594Z,99849.83
2022-11-16T16:20:25.310Z,99854.60
2022-11-16T16:22:54.328Z,99849.25
2022-11-16T16:25:34.536Z,99853.17
2022-11-16T16:28:03.138Z,99849.31
2022-11-16T16:30:34.743Z,99851.48
2022-11-16T16:33:02.706Z,99852.54
2022-11-16T16:35:30.741Z,99858.73
2022-11-16T16:38:01.070Z,99854.89
2022-11-16T16:40:29.234Z,99857.19
2022-11-16T16:42:58.058Z,99863.23
2022-11-16T16:45:38.733Z,99860.83
2022-11-16T16:48:09.077Z,99862.35
2022-11-16T16:50:37.889Z,99863.33
2022-11-16T16:53:06.067Z,99866.09
2022-11-16T16:55:37.691Z,99865.97
2022-11-16T16:58:05.912Z,99868.92
2022-11-16T17:00:34.291Z,99866.95
2022-11-16T17:03:02.409Z,99865.00
2022-11-16T17:05:33.925Z,99864.54
2022-11-16T17:08:01.821Z,99862.98
2022-11-16T17:10:29.805Z,99871.38
2022-11-16T17:12:58.404Z,99872.46
2022-11-16T17:15:26.372Z,99876.54
2022-11-16T17:17:54.433Z,99878.27
2022-11-16T17:20:22.309Z,99877.77
2022-11-16T17:22:50.167Z,99879.58
2022-11-16T17:25:18.190Z,99878.83
2022-11-16T17:27:46.224Z,99882.73
2022-11-16T17:30:15.081Z,99878.44
2022-11-16T17:32:43.066Z,99885.06
2022-11-16T17:35:11.121Z,99883.14
2022-11-16T17:37:39.198Z,99891.24
2022-11-16T17:40:08.799Z,99890.20
2022-11-16T17:42:36.836Z,99887.16
2022-11-16T17:45:05.981Z,99886.48
2022-11-16T17:47:34.053Z,99893.45
2022-11-16T17:50:02.073Z,99897.80
2022-11-16T17:52:30.100Z,99895.65
2022-11-16T17:54:58.021Z,99895.00
2022-11-16T17:57:26.103Z,99896.80
2022-11-16T17:59:54.054Z,99895.69
2022-11-16T18:02:22.074Z,99895.90
2022-11-16T18:04:51.418Z,99890.56
2022-11-16T18:07:19.693Z,99893.47
2022-11-16T18:09:47.872Z,99893.30
2022-11-16T18:12:16.129Z,99891.98
2022-11-16T18:14:59.943Z,99898.14
2022-11-16T18:17:34.817Z,99898.96
2022-11-16T18:20:05.005Z,99897.95
2022-11-16T18:22:33.105Z,99898.15
2022-11-16T18:25:02.373Z,99899.56
2022-11-16T18:27:31.850Z,99893.66
2022-11-16T18:29:59.901Z,99897.92
2022-11-16T18:32:29.512Z,99889.08
2022-11-16T18:34:57.586Z,99898.99
2022-11-16T18:37:25.450Z,99900.24
2022-11-16T18:39:53.488Z,99912.10
2022-11-16T18:42:21.411Z,99913.06
2022-11-16T18:44:51.264Z,99913.92
2022-11-16T18:47:19.343Z,99917.67
2022-11-16T18:49:47.270Z,99912.73
2022-11-16T18:52:15.116Z,99919.27
2022-11-16T18:54:43.039Z,99921.55
2022-11-16T18:57:10.965Z,99913.98
2022-11-16T18:59:38.823Z,99910.57
2022-11-16T19:02:06.929Z,99914.13
2022-11-16T19:04:34.949Z,99916.73
2022-11-16T19:07:02.996Z,99913.44
2022-11-16T19:09:31.317Z,99909.40
2022-11-16T19:11:59.292Z,99897.45
2022-11-16T19:14:27.109Z,99901.38
2022-11-16T19:16:57.321Z,99900.88
2022-11-16T19:19:27.666Z,99908.81
2022-11-16T19:21:56.923Z,99915.45
2022-11-16T19:24:24.935Z,99920.77
2022-11-16T19:26:52.960Z,99932.24
2022-11-16T19:29:20.900Z,99929.91
2022-11-16T19:31:48.813Z,99932.35
2022-11-16T19:34:16.686Z,99934.48
2022-11-16T19:36:44.682Z,99934.64
2022-11-16T19:39:12.616Z,99934.10
2022-11-16T19:41:40.714Z,99930.40
2022-11-16T19:44:11.288Z,99925.05
2022-11-16T19:50:21.749Z,99928.05
2022-11-16T19:50:28.552Z,99923.86
2022-11-16T19:54:52.536Z,99922.38
2022-11-16T19:58:10.299Z,99928.20
2022-11-16T19:59:43.328Z,99920.58
2022-11-16T20:02:28.705Z,99924.37
2022-11-16T20:04:56.885Z,99930.63
2022-11-16T20:07:25.393Z,99928.97
2022-11-16T20:09:54.514Z,99932.05
2022-11-16T20:12:22.513Z,99925.34
2022-11-16T20:14:52.999Z,99932.93
2022-11-16T20:17:26.556Z,99934.73
2022-11-16T20:19:57.614Z,99934.89
2022-11-16T20:22:28.598Z,99936.64
2022-11-16T20:24:56.602Z,99935.36
2022-11-16T20:27:25.819Z,99935.85
2022-11-16T20:29:54.971Z,99937.38
2022-11-16T20:32:25.345Z,99935.31
2022-11-16T20:34:53.379Z,99934.55
2022-11-16T20:37:21.385Z,99930.83
2022-11-16T20:39:52.713Z,99934.36
2022-11-16T20:42:20.588Z,99927.39
2022-11-16T20:44:48.541Z,99928.02
2022-11-16T20:47:16.745Z,99923.91
2022-11-16T20:49:44.794Z,99922.52
2022-11-16T20:52:13.128Z,99924.16
2022-11-16T20:54:58.450Z,99920.87
2022-11-16T20:57:40.261Z,99915.89
2022-11-16T21:00:16.849Z,99910.70
2022-11-16T21:02:46.023Z,99908.71
2022-11-16T21:05:13.968Z,99915.73
2022-11-16T21:07:43.958Z,99919.67
2022-11-16T21:10:20.946Z,99922.52
2022-11-16T21:13:08.361Z,99924.66
2022-11-16T21:15:36.264Z,99922.48
2022-11-16T21:18:04.476Z,99913.77
2022-11-16T21:20:32.373Z,99920.38
2022-11-16T21:23:00.260Z,99914.95
2022-11-16T21:25:28.093Z,99918.59
2022-11-16T21:27:57.000Z,99918.90
2022-11-16T21:30:24.824Z,99901.56
2022-11-16T21:32:52.718Z,99911.80
2022-11-16T21:35:20.983Z,99912.15
2022-11-16T21:37:49.015Z,99912.89
2022-11-16T21:40:17.064Z,99913.85
2022-11-16T21:42:45.060Z,99921.61
2022-11-16T21:45:24.509Z,99926.14
2022-11-16T21:47:52.503Z,99925.40
2022-11-16T21:50:35.781Z,99928.47
2022-11-16T21:53:05.296Z,99923.04
2022-11-16T21:55:33.824Z,99923.94
2022-11-16T21:58:05.844Z,99925.80
2022-11-16T22:04:16.243Z,99917.57
2022-11-16T22:07:13.043Z,99931.14
2022-11-16T22:09:41.035Z,99933.90
2022-11-16T22:12:08.948Z,99933.16
2022-11-16T22:14:39.309Z,99936.39
2022-11-16T22:17:08.536Z,99932.58
2022-11-16T22:19:36.482Z,99940.61
2022-11-16T22:22:04.442Z,99946.25
2022-11-16T22:24:32.473Z,99945.73
2022-11-16T22:27:00.621Z,99944.19
2022-11-16T22:29:28.517Z,99939.73
2022-11-16T22:31:56.403Z,99934.65
2022-11-16T22:34:24.426Z,99930.05
2022-11-16T22:36:52.400Z,99931.25
2022-11-16T22:39:22.781Z,99930.23
2022-11-16T22:41:50.707Z,99921.83
2022-11-16T22:44:18.570Z,99917.63
2022-11-16T22:46:46.569Z,99923.48
2022-11-16T22:49:14.401Z,99924.95
2022-11-16T22:51:46.027Z,99925.92
2022-11-16T22:54:15.636Z,99922.59
2022-11-16T22:56:43.646Z,99920.42
2022-11-16T22:59:12.536Z,99920.19
2022-11-16T23:01:40.836Z,99917.21
2022-11-16T23:04:09.586Z,99914.88
2022-11-16T23:10:34.303Z,99912.95
2022-11-16T23:13:16.789Z,99917.29
2022-11-16T23:15:50.789Z,99914.14
2022-11-16T23:18:19.679Z,99913.98
2022-11-16T23:21:09.192Z,99898.15
2022-11-16T23:23:57.128Z,99909.23
2022-11-16T23:26:46.162Z,99894.43
2022-11-16T23:29:14.135Z,99895.27
2022-11-16T23:31:42.106Z,99892.70
2022-11-16T23:34:09.958Z,99899.95
2022-11-16T23:36:37.887Z,99898.45
2022-11-16T23:39:05.873Z,99900.70
2022-11-16T23:41:52.259Z,99896.35
2022-11-16T23:44:20.196Z,99894.98
2022-11-16T23:46:48.059Z,99890.73
2022-11-16T23:49:15.960Z,99891.79
2022-11-16T23:51:46.102Z,99893.92
2022-11-16T23:54:14.026Z,99895.75
2022-11-16T23:56:41.990Z,99896.98
2022-11-16T23:59:09.906Z,99898.49
